Latest Weather Observations for Julia Creek

IDQ60801

Issued at 9:05 pm EST Wednesday 17 September 2014 (issued every 30 minutes, with the page automatically refreshed every 10 minutes)

About weather observations | Map of weather stations | Latest weather observations for QLD | Other Formats
Station Details ID: 029058 Name: JULIA CREEK AIRPORT Lat: -20.67 Lon: 141.72 Height: 122.5 m
Data from the previous 72 hours. | See also: Recent months at Julia Creek
Date/Time
EST
Temp
°C
App
Temp
°C
Dew
Point
Rel
Hum
%
Delta-T
°C
Wind Press
QNH
hPa
Press
MSL
hPa
Rain
since 9 am
mm
Dir
 
Spd
km/h
Gust
km/h
Spd
kts
Gust
kts
17/09:00pm 22.8 17.2 -6.1 14 11.7 S 15 17 8 9 1016.8 1016.2 0.0
17/08:30pm 24.4 18.5 -5.8 13 12.5 S 17 20 9 11 1016.5 1015.9 0.0
17/08:00pm 25.6 19.6 -7.0 11 13.3 SSE 17 17 9 9 1015.9 1015.3 0.0
17/07:30pm 24.7 18.6 -7.7 11 12.9 S 17 19 9 10 1015.5 1014.9 0.0
17/07:00pm 26.1 20.4 -7.9 10 13.7 S 15 15 8 8 1015.1 1014.5 0.0
17/06:30pm 29.6 24.0 -6.6 9 15.4 S 15 20 8 11 1014.7 1014.1 0.0
17/06:00pm 32.0 25.5 -6.3 8 16.8 S 20 30 11 16 1014.4 1013.8 0.0
17/05:30pm 33.0 26.9 -7.3 7 17.5 S 17 30 9 16 1014.2 1013.6 0.0
17/05:00pm 33.9 27.3 -6.7 7 17.9 S 20 30 11 16 1013.8 1013.3 0.0
17/04:30pm 34.4 28.1 -6.3 7 18.2 SSW 19 30 10 16 1013.6 1013.1 0.0
17/04:00pm 34.5 27.0 -8.2 6 18.5 S 24 32 13 17 1013.5 1013.0 0.0
17/03:30pm 34.7 29.3 -8.1 6 18.6 SW 13 22 7 12 1013.6 1013.1 0.0
17/03:00pm 33.6 28.3 -6.9 7 17.8 SSE 13 24 7 13 1014.0 1013.4 0.0
17/02:30pm 34.7 28.8 -6.1 7 18.3 S 17 28 9 15 1014.4 1013.8 0.0
17/02:00pm 34.7 29.9 -6.1 7 18.3 SSW 11 22 6 12 1014.9 1014.3 0.0
17/01:30pm 34.0 28.8 -6.6 7 18.0 SE 13 22 7 12 1015.2 1014.6 0.0
17/01:00pm 33.2 28.7 -7.2 7 17.6 E 9 19 5 10 1015.7 1015.1 0.0
17/12:30pm 33.1 28.4 -5.5 8 17.3 NE 11 19 6 10 1016.1 1015.5 0.0
17/12:00pm 32.5 26.8 -7.7 7 17.2 E 15 24 8 13 1016.7 1016.1 0.0
17/11:30am 32.2 25.9 -9.9 6 17.4 ENE 17 26 9 14 1017.0 1016.4 0.0
17/11:00am 31.7 25.6 -8.3 7 16.8 E 17 28 9 15 1017.5 1016.9 0.0
17/10:30am 29.9 23.5 -6.4 9 15.6 E 19 28 10 15 1018.0 1017.4 0.0
17/10:00am 29.3 22.3 -6.8 9 15.3 ESE 22 30 12 16 1018.4 1017.9 0.0
17/09:30am 28.6 21.5 -4.7 11 14.6 ESE 24 33 13 18 1018.6 1018.1 0.0
17/09:00am 26.3 18.3 -5.3 12 13.4 ESE 28 35 15 19 1018.7 1018.2 0.0
17/08:30am 24.5 17.3 -5.7 13 12.5 SE 24 37 13 20 1018.5 1018.0 0.0
17/08:00am 21.9 15.3 -6.8 14 11.3 SE 20 26 11 14 1018.2 1017.6 0.0
17/07:30am 20.1 14.5 -6.5 16 10.4 SE 15 20 8 11 1017.5 1016.9 0.0
17/07:00am 18.1 12.1 -6.6 18 9.4 SE 17 22 9 12 1016.9 1016.3 0.0
17/06:30am 17.3 10.7 -7.2 18 9.1 SSE 20 26 11 14 1016.4 1015.8 0.0
17/06:00am 17.1 11.0 -7.4 18 9.1 S 17 20 9 11 1015.9 1015.3 0.0
17/05:30am 19.1 12.2 -6.5 17 9.9 S 22 26 12 14 1015.2 1014.6 0.0
17/05:00am 18.6 13.3 -6.9 17 9.7 E 13 15 7 8 1014.3 1013.7 0.0
17/04:30am 18.4 12.7 -7.1 17 9.7 ESE 15 19 8 10 1014.3 1013.7 0.0
17/04:00am 19.4 13.5 -5.5 18 9.8 ESE 17 19 9 10 1014.3 1013.7 0.0
17/03:30am 18.6 12.7 -5.4 19 9.4 SE 17 22 9 12 1014.4 1013.8 0.0
17/03:00am 18.4 12.5 -5.6 19 9.4 SE 17 19 9 10 1014.6 1014.0 0.0
17/02:30am 20.6 14.9 -3.8 19 10.1 SSE 17 20 9 11 1014.8 1014.2 0.0
17/02:00am 17.7 12.2 -5.5 20 9.0 SE 15 17 8 9 1015.0 1014.4 0.0
17/01:30am 19.2 14.0 -5.7 18 9.8 SE 13 15 7 8 1014.9 1014.3 0.0
17/01:00am 18.4 13.3 -5.6 19 9.4 SSE 13 15 7 8 1014.7 1014.1 0.0
17/12:30am 18.9 13.7 -5.9 18 9.7 S 13 15 7 8 1014.6 1014.0 0.0
17/12:00am 19.9 14.8 -5.1 18 10.0 SSE 13 13 7 7 1014.6 1014.0 0.0
 
Date/Time
EST
Temp
°C
App
Temp
°C
Dew
Point
Rel
Hum
%
Delta-T
°C
Wind Press
QNH
hPa
Press
MSL
hPa
Rain
since 9 am
mm
Dir
 
Spd
km/h
Gust
km/h
Spd
kts
Gust
kts
16/11:30pm 19.5 15.6 -6.2 17 10.0 SSE 6 7 3 4 1014.7 1014.1 0.0
16/11:00pm 20.9 17.0 -5.0 17 10.5 ESE 7 13 4 7 1014.5 1013.9 0.0
16/10:30pm 19.1 14.5 -8.1 15 10.2 SSE 9 15 5 8 1014.4 1013.8 0.0
16/10:00pm 22.1 17.8 -4.9 16 11.1 E 9 11 5 6 1014.2 1013.6 0.0
16/09:30pm 22.1 17.7 -5.7 15 11.2 SSE 9 15 5 8 1014.1 1013.5 0.0
16/09:00pm 23.1 17.9 -5.8 14 11.8 SE 13 15 7 8 1013.8 1013.3 0.0
16/08:30pm 24.6 19.1 -5.6 13 12.5 S 15 15 8 8 1013.6 1013.1 0.0
16/08:00pm 25.9 21.1 -5.6 12 13.2 S 11 13 6 7 1013.4 1012.9 0.0
16/07:30pm 28.0 23.4 -4.0 12 14.1 S 11 15 6 8 1013.1 1012.6 0.0
16/07:00pm 28.2 23.5 -5.0 11 14.4 SSE 11 13 6 7 1012.7 1012.2 0.0
16/06:30pm 30.4 26.1 -4.6 10 15.6 SSE 9 13 5 7 1012.4 1011.9 0.0
16/06:00pm 32.4 28.3 -3.1 10 16.5 ESE 9 13 5 7 1012.2 1011.7 0.0
16/05:30pm 33.3 29.3 -2.4 10 16.8 E 9 17 5 9 1012.0 1011.5 0.0
16/05:00pm 33.4 27.9 -2.3 10 16.9 ESE 17 24 9 13 1011.9 1011.4 0.0
16/04:30pm 34.4 29.7 -1.6 10 17.3 SE 13 22 7 12 1011.7 1011.2 0.0
16/04:00pm 33.4 27.5 -2.3 10 16.9 SE 19 30 10 16 1011.8 1011.3 0.0
16/03:30pm 34.2 29.1 -1.7 10 17.2 S 15 26 8 14 1011.9 1011.4 0.0
16/03:00pm 34.0 30.6 -1.9 10 17.2 NE 6 - 3 - - 1011.5 0.0
16/02:30pm 35.2 28.9 -1.0 10 17.7 SSW 22 28 12 15 1012.3 1011.8 0.0
16/02:00pm 33.4 27.5 -2.3 10 16.9 SSE 19 26 10 14 1013.0 1012.5 0.0
16/01:30pm 33.7 29.1 -0.8 11 16.8 S 13 33 7 18 1013.4 1012.9 0.0
16/01:00pm 33.3 27.6 -1.1 11 16.6 ESE 19 37 10 20 1014.2 1013.6 0.0
16/12:30pm 33.7 29.7 0.4 12 16.5 S 11 32 6 17 1014.7 1014.1 0.0
16/12:00pm 32.3 29.0 0.4 13 15.7 SE 7 17 4 9 1015.1 1014.5 0.0
16/11:30am 32.3 27.7 1.4 14 15.4 ESE 15 28 8 15 1015.7 1015.1 0.0
16/11:00am 31.6 28.2 1.8 15 14.9 E 9 19 5 10 1016.0 1015.4 0.0
16/10:30am 31.2 27.1 2.4 16 14.5 ENE 13 19 7 10 1016.2 1015.6 0.0
16/10:00am 30.2 25.4 4.8 20 13.2 NNE 19 24 10 13 1016.5 1015.9 0.0
16/09:30am 29.3 24.9 6.7 24 12.1 NNE 19 24 10 13 1016.6 1016.0 0.0
16/09:00am 27.6 23.3 6.9 27 11.0 NNE 19 24 10 13 1016.6 1016.0 0.0
16/08:30am 25.5 20.7 5.7 28 10.2 NNE 20 28 11 15 1016.5 1015.9 0.0
16/08:00am 22.9 18.8 2.4 26 9.8 NE 13 19 7 10 1016.2 1015.6 0.0
16/07:30am 19.7 15.6 -0.3 26 8.8 ENE 11 13 6 7 1015.7 1015.1 0.0
16/07:00am 17.7 13.1 -1.0 28 8.0 ENE 13 17 7 9 1015.4 1014.8 0.0
16/06:30am 15.6 11.3 -1.9 30 7.2 ENE 11 13 6 7 1014.9 1014.3 0.0
16/06:00am 15.4 11.1 -1.6 31 7.0 E 11 13 6 7 1014.7 1014.1 0.0
16/05:30am 15.0 10.6 -2.4 30 7.0 E 11 11 6 6 1014.5 1013.9 0.0
16/05:00am 16.7 12.4 -1.4 29 7.6 E 11 13 6 7 1014.3 1013.7 0.0
16/04:30am 17.1 12.4 -1.5 28 7.8 E 13 15 7 8 1014.0 1013.4 0.0
16/04:00am 18.3 13.7 -1.0 27 8.3 E 13 17 7 9 1013.6 1013.1 0.0
16/03:30am 15.9 11.2 -2.1 29 7.4 E 13 15 7 8 1013.5 1013.0 0.0
16/03:00am 15.7 10.5 -2.7 28 7.4 ESE 15 15 8 8 1013.6 1013.1 0.0
16/02:30am 16.4 11.6 -2.6 27 7.7 E 13 13 7 7 1013.7 1013.2 0.0
16/02:00am 15.8 10.9 -3.1 27 7.6 ESE 13 15 7 8 1014.0 1013.4 0.0
16/01:30am 16.1 11.6 -2.9 27 7.7 ESE 11 13 6 7 1014.1 1013.5 0.0
16/01:00am 16.8 11.9 -3.3 25 8.1 ESE 13 13 7 7 1014.1 1013.5 0.0
16/12:30am 18.2 13.8 -2.1 25 8.5 ESE 11 13 6 7 1014.3 1013.7 0.0
16/12:00am 17.9 13.4 -2.9 24 8.5 ESE 11 13 6 7 1014.2 1013.6 0.0
 
Date/Time
EST
Temp
°C
App
Temp
°C
Dew
Point
Rel
Hum
%
Delta-T
°C
Wind Press
QNH
hPa
Press
MSL
hPa
Rain
since 9 am
mm
Dir
 
Spd
km/h
Gust
km/h
Spd
kts
Gust
kts
15/11:30pm 18.3 13.9 -2.6 24 8.7 SE 11 13 6 7 1014.3 1013.7 0.0
15/11:00pm 19.1 14.3 -2.5 23 9.0 ESE 13 15 7 8 1014.3 1013.7 0.0
15/10:30pm 18.6 13.8 -2.9 23 8.9 SE 13 13 7 7 1014.4 1013.8 0.0
15/10:00pm 19.2 14.7 -3.6 21 9.3 ESE 11 13 6 7 1014.4 1013.8 0.0
15/09:30pm 20.0 15.5 -3.0 21 9.6 ESE 11 13 6 7 1014.3 1013.7 0.0
15/09:00pm 21.3 17.0 -1.9 21 10.0 ESE 11 13 6 7 1014.1 1013.5 0.0
15/08:30pm 22.0 17.3 -2.0 20 10.4 ESE 13 15 7 8 1013.7 1013.2 0.0
15/08:00pm 23.2 19.3 -1.7 19 11.0 SE 9 11 5 6 1013.4 1012.9 0.0
15/07:30pm 24.9 20.0 -0.3 19 11.6 SE 15 17 8 9 1013.1 1012.6 0.0
15/07:00pm 25.6 21.4 -1.2 17 12.2 SE 11 15 6 8 1012.7 1012.2 0.0
15/06:30pm 28.7 24.7 0.4 16 13.6 SE 11 15 6 8 1012.4 1011.9 0.0
15/06:00pm 30.9 26.6 1.3 15 14.6 SE 13 30 7 16 1012.3 1011.8 0.0
15/05:30pm 31.4 28.0 1.7 15 14.8 ESE 9 17 5 9 1012.2 1011.7 0.0
15/05:00pm 32.0 27.3 1.2 14 15.3 SSE 15 22 8 12 1012.1 1011.6 0.0
15/04:30pm 32.6 28.6 2.6 15 15.3 ESE 13 20 7 11 1012.1 1011.6 0.0
15/04:00pm 32.1 29.1 2.2 15 15.1 NE 7 17 4 9 1012.0 1011.5 0.0
15/03:30pm 33.4 29.9 3.3 15 15.6 SSE 11 26 6 14 1012.3 1011.8 0.0
15/03:00pm 32.8 29.6 2.8 15 15.4 W 9 15 5 8 1012.6 1012.1 0.0
15/02:30pm 32.1 28.4 2.2 15 15.1 S 11 22 6 12 1013.0 1012.5 0.0
15/02:00pm 31.9 28.5 2.1 15 15.0 SSE 9 19 5 10 1013.4 1012.9 0.0
15/01:30pm 32.8 28.8 2.8 15 15.4 ESE 13 24 7 13 1013.6 1013.1 0.0
15/01:00pm 31.8 28.6 2.9 16 14.7 SSE 9 22 5 12 1014.4 1013.8 0.0
15/12:30pm 31.6 29.1 3.6 17 14.4 NE 6 13 3 7 1014.9 1014.3 0.0
15/12:00pm 30.3 26.9 4.1 19 13.5 ENE 11 17 6 9 1015.4 1014.8 0.0
15/11:30am 30.4 26.8 4.9 20 13.3 NE 13 22 7 12 1016.0 1015.4 0.0
15/11:00am 30.5 27.3 7.0 23 12.7 ENE 13 26 7 14 1016.5 1015.9 0.0
15/10:30am 28.5 25.5 7.7 27 11.3 NE 13 26 7 14 1016.8 1016.2 0.0
15/10:00am 27.5 24.2 7.9 29 10.6 NE 15 20 8 11 1017.2 1016.6 0.0
15/09:30am 26.3 22.8 7.4 30 10.1 NE 15 22 8 12 1017.2 1016.6 0.0
15/09:00am 24.9 20.6 7.1 32 9.4 ENE 19 26 10 14 1017.1 1016.5 0.0
15/08:30am 23.0 18.3 5.0 31 9.0 E 19 28 10 15 1016.9 1016.3 0.0
15/08:00am 21.4 16.3 3.1 30 8.7 E 19 22 10 12 1016.6 1016.0 0.0
15/07:30am 19.2 14.9 0.8 29 8.3 ESE 13 19 7 10 1016.2 1015.6 0.0
15/07:00am 17.4 12.6 0.1 31 7.5 ESE 15 19 8 10 1015.6 1015.0 0.0
15/06:30am 16.9 12.0 -0.3 31 7.4 E 15 17 8 9 1015.2 1014.6 0.0
15/06:00am 17.4 12.5 -0.3 30 7.6 E 15 17 8 9 1014.9 1014.3 0.0
15/05:30am 18.0 12.8 0.2 30 7.8 ESE 17 22 9 12 1014.6 1014.0 0.0
15/05:00am 18.0 12.7 -0.3 29 7.9 ESE 17 20 9 11 1014.4 1013.8 0.0
15/04:30am 18.2 13.0 -0.1 29 8.0 ESE 17 19 9 10 1014.0 1013.4 0.0
15/04:00am 18.5 12.9 -0.3 28 8.2 ESE 19 22 10 12 1014.0 1013.4 0.0
15/03:30am 19.9 14.1 -0.1 26 8.9 ESE 20 28 11 15 1014.1 1013.5 0.0
15/03:00am 19.9 13.7 -0.1 26 8.9 ESE 22 26 12 14 1014.3 1013.7 0.0
15/02:30am 20.1 13.9 -0.5 25 9.1 ESE 22 26 12 14 1014.4 1013.8 0.0
15/02:00am 20.5 14.7 -0.2 25 9.2 ESE 20 28 11 15 1014.5 1013.9 0.0
15/01:30am 21.1 15.3 -0.2 24 9.5 ESE 20 24 11 13 1014.6 1014.0 0.0
15/01:00am 21.8 15.6 -0.2 23 9.9 ESE 22 28 12 15 1014.7 1014.1 0.0
15/12:30am 22.1 16.3 0.0 23 10.0 ESE 20 24 11 13 1014.9 1014.3 0.0
15/12:00am 22.7 17.2 0.5 23 10.2 ESE 19 24 10 13 1014.9 1014.3 0.0
 
Date/Time
EST
Temp
°C
App
Temp
°C
Dew
Point
Rel
Hum
%
Delta-T
°C
Wind Press
QNH
hPa
Press
MSL
hPa
Rain
since 9 am
mm
Dir
 
Spd
km/h
Gust
km/h
Spd
kts
Gust
kts
14/11:30pm 22.8 17.1 0.6 23 10.2 SE 20 24 11 13 1014.8 1014.2 0.0
14/11:00pm 23.7 18.1 1.4 23 10.5 SE 20 24 11 13 1014.5 1013.9 0.0
14/10:30pm 22.5 17.9 1.5 25 9.8 SSE 15 19 8 10 1014.5 1013.9 0.0
14/10:00pm 23.8 19.0 2.6 25 10.2 SE 17 20 9 11 1014.5 1013.9 0.0
14/09:30pm 23.9 19.4 2.1 24 10.4 SE 15 17 8 9 1014.5 1013.9 0.0

Other Formats:

Comma delimited format used in spreadsheet applications
http://www.bom.gov.au/fwo/IDQ60801/IDQ60801.94337.axf

JavaScript Object Notation format (JSON) in row-major order
http://www.bom.gov.au/fwo/IDQ60801/IDQ60801.94337.json